createdAt,value
2018-08-31T00:00:18.176Z,100.00
2018-08-31T00:04:30.569Z,100.00
2018-08-31T00:07:47.083Z,100.00
2018-08-31T00:10:56.821Z,100.00
2018-08-31T00:21:08.503Z,100.00
2018-08-31T00:24:22.231Z,100.00
2018-08-31T00:27:35.997Z,100.00
2018-08-31T00:30:49.602Z,100.00
2018-08-31T00:34:34.660Z,100.00
2018-08-31T00:38:23.407Z,100.00
2018-08-31T00:41:35.868Z,100.00
2018-08-31T00:44:49.600Z,100.00
2018-08-31T00:47:51.796Z,100.00
2018-08-31T00:50:54.085Z,100.00
2018-08-31T00:53:56.300Z,100.00
2018-08-31T00:56:58.483Z,100.00
2018-08-31T01:00:01.500Z,100.00
2018-08-31T01:03:03.697Z,100.00
2018-08-31T01:06:05.950Z,100.00
2018-08-31T01:09:08.179Z,100.00
2018-08-31T01:12:10.371Z,100.00
2018-08-31T01:15:12.660Z,100.00
2018-08-31T01:18:14.887Z,100.00
2018-08-31T01:21:17.203Z,100.00
2018-08-31T01:24:19.409Z,100.00
2018-08-31T01:27:21.613Z,100.00
2018-08-31T01:30:23.903Z,100.00
2018-08-31T01:33:26.076Z,100.00
2018-08-31T01:36:28.396Z,100.00
2018-08-31T01:39:30.574Z,100.00
2018-08-31T01:42:32.815Z,100.00
2018-08-31T01:45:35.054Z,100.00
2018-08-31T01:48:37.305Z,100.00
2018-08-31T01:51:39.585Z,100.00
2018-08-31T01:54:41.864Z,100.00
2018-08-31T01:57:44.111Z,100.00
2018-08-31T02:00:46.315Z,100.00
2018-08-31T02:03:48.668Z,100.00
2018-08-31T02:06:50.992Z,100.00
2018-08-31T02:09:53.214Z,100.00
2018-08-31T02:12:55.613Z,100.00
2018-08-31T02:15:57.950Z,100.00
2018-08-31T02:19:00.258Z,100.00
2018-08-31T02:22:02.475Z,100.00
2018-08-31T02:25:04.736Z,100.00
2018-08-31T02:28:06.966Z,100.00
2018-08-31T02:31:09.122Z,100.00
2018-08-31T02:34:11.380Z,100.00
2018-08-31T02:37:13.741Z,100.00
2018-08-31T02:40:15.920Z,100.00
2018-08-31T02:43:18.208Z,100.00
2018-08-31T02:46:21.427Z,100.00
2018-08-31T02:49:23.659Z,100.00
2018-08-31T02:52:25.914Z,100.00
2018-08-31T02:55:28.136Z,100.00
2018-08-31T02:58:30.398Z,100.00
2018-08-31T03:01:32.674Z,100.00
2018-08-31T03:04:34.939Z,100.00
2018-08-31T03:07:37.212Z,100.00
2018-08-31T03:10:39.496Z,100.00
2018-08-31T03:13:41.668Z,100.00
2018-08-31T03:16:43.836Z,100.00
2018-08-31T03:19:46.104Z,100.00
2018-08-31T03:22:48.279Z,100.00
2018-08-31T03:25:50.512Z,100.00
2018-08-31T03:28:52.876Z,100.00
2018-08-31T03:31:55.065Z,100.00
2018-08-31T03:34:57.233Z,100.00
2018-08-31T03:37:59.479Z,100.00
2018-08-31T03:41:01.672Z,100.00
2018-08-31T03:44:03.823Z,100.00
2018-08-31T03:47:05.931Z,100.00
2018-08-31T03:50:08.232Z,100.00
2018-08-31T03:53:10.646Z,100.00
2018-08-31T03:56:12.834Z,100.00
2018-08-31T03:59:15.089Z,100.00
2018-08-31T04:02:17.226Z,100.00
2018-08-31T04:05:19.561Z,100.00
2018-08-31T04:08:21.815Z,100.00
2018-08-31T04:11:24.062Z,100.00
2018-08-31T04:14:26.259Z,100.00
2018-08-31T04:17:28.631Z,100.00
2018-08-31T04:20:30.932Z,100.00
2018-08-31T04:23:33.108Z,100.00
2018-08-31T04:26:35.356Z,100.00
2018-08-31T04:29:37.659Z,100.00
2018-08-31T04:32:39.891Z,100.00
2018-08-31T04:35:42.195Z,100.00
2018-08-31T04:38:44.388Z,100.00
2018-08-31T04:41:46.667Z,100.00
2018-08-31T04:44:48.888Z,100.00
2018-08-31T04:47:51.093Z,100.00
2018-08-31T04:50:53.242Z,100.00
2018-08-31T04:53:55.508Z,100.00
2018-08-31T04:56:57.745Z,100.00
2018-08-31T04:59:59.915Z,100.00
2018-08-31T05:03:02.205Z,100.00
2018-08-31T05:06:05.046Z,100.00
2018-08-31T05:09:08.558Z,100.00
2018-08-31T05:12:10.742Z,100.00
2018-08-31T05:15:12.986Z,100.00
2018-08-31T05:18:15.428Z,100.00
2018-08-31T05:21:17.606Z,100.00
2018-08-31T05:24:19.873Z,100.00
2018-08-31T05:27:22.052Z,100.00
2018-08-31T05:30:24.238Z,100.00
2018-08-31T05:33:26.489Z,100.00
2018-08-31T05:36:28.661Z,100.00
2018-08-31T05:39:30.850Z,100.00
2018-08-31T05:42:33.021Z,100.00
2018-08-31T05:45:35.300Z,100.00
2018-08-31T05:48:37.793Z,100.00
2018-08-31T05:51:40.040Z,100.00
2018-08-31T05:54:42.272Z,98.38
2018-08-31T05:57:44.544Z,95.74
2018-08-31T06:00:46.777Z,94.58
2018-08-31T06:03:48.943Z,94.39
2018-08-31T06:06:51.083Z,94.50
2018-08-31T06:09:53.285Z,92.96
2018-08-31T06:12:55.608Z,93.12
2018-08-31T06:15:58.032Z,92.29
2018-08-31T06:19:00.217Z,92.31
2018-08-31T06:22:03.842Z,92.04
2018-08-31T06:25:06.466Z,92.32
2018-08-31T06:28:08.708Z,91.79
2018-08-31T06:31:10.963Z,92.87
2018-08-31T06:34:13.294Z,91.74
2018-08-31T06:37:16.146Z,91.03
2018-08-31T06:40:18.411Z,90.28
2018-08-31T06:43:20.599Z,93.42
2018-08-31T06:46:22.764Z,91.10
2018-08-31T06:49:24.989Z,92.44
2018-08-31T06:52:27.255Z,91.82
2018-08-31T06:55:29.487Z,88.39
2018-08-31T06:58:31.670Z,88.68
2018-08-31T07:01:33.944Z,89.59
2018-08-31T07:04:36.160Z,88.29
2018-08-31T07:07:38.757Z,88.35
2018-08-31T07:10:41.000Z,88.77
2018-08-31T07:13:43.302Z,89.37
2018-08-31T07:16:45.541Z,91.20
2018-08-31T07:19:47.851Z,91.23
2018-08-31T07:22:50.095Z,89.20
2018-08-31T07:25:52.380Z,90.83
2018-08-31T07:28:54.653Z,87.61
2018-08-31T07:31:56.834Z,87.94
2018-08-31T07:34:59.027Z,81.34
2018-08-31T07:38:01.256Z,78.22
2018-08-31T07:41:03.384Z,77.24
2018-08-31T07:44:05.792Z,76.97
2018-08-31T07:47:08.091Z,78.49
2018-08-31T07:50:10.284Z,81.37
2018-08-31T07:53:12.503Z,81.22
2018-08-31T07:56:14.610Z,81.32
2018-08-31T07:59:16.923Z,81.26
2018-08-31T08:02:19.217Z,80.98
2018-08-31T08:05:21.565Z,79.42
2018-08-31T08:08:23.851Z,78.48
2018-08-31T08:11:26.198Z,75.58
2018-08-31T08:14:28.470Z,75.57
2018-08-31T08:17:30.631Z,75.77
2018-08-31T08:20:32.788Z,72.41
2018-08-31T08:23:35.023Z,72.58
2018-08-31T08:26:37.135Z,71.95
2018-08-31T08:29:39.468Z,73.14
2018-08-31T08:32:41.709Z,71.19
2018-08-31T08:35:43.979Z,71.50
2018-08-31T08:38:46.179Z,71.79
2018-08-31T08:41:48.451Z,75.32
2018-08-31T08:44:50.687Z,75.59
2018-08-31T08:47:52.886Z,75.56
2018-08-31T08:50:55.151Z,74.40
2018-08-31T08:53:57.301Z,75.26
2018-08-31T08:56:59.464Z,75.74
2018-08-31T09:00:01.849Z,74.67
2018-08-31T09:03:04.155Z,75.49
2018-08-31T09:06:06.389Z,73.74
2018-08-31T09:09:09.352Z,71.57
2018-08-31T09:12:11.645Z,69.01
2018-08-31T09:15:13.836Z,70.19
2018-08-31T09:18:16.124Z,68.10
2018-08-31T09:21:18.421Z,67.68
2018-08-31T09:24:21.036Z,63.87
2018-08-31T09:27:27.818Z,64.83
2018-08-31T09:30:36.107Z,66.10
2018-08-31T09:33:38.325Z,67.11
2018-08-31T09:36:40.656Z,70.52
2018-08-31T09:39:42.844Z,71.57
2018-08-31T09:42:44.976Z,70.20
2018-08-31T09:45:47.202Z,69.57
2018-08-31T09:48:49.488Z,69.70
2018-08-31T09:51:51.737Z,68.15
2018-08-31T09:54:54.024Z,68.21
2018-08-31T09:57:56.528Z,67.57
2018-08-31T10:01:05.492Z,66.75
2018-08-31T10:04:07.778Z,65.66
2018-08-31T10:07:10.073Z,66.81
2018-08-31T10:10:12.455Z,65.78
2018-08-31T10:13:15.055Z,65.44
2018-08-31T10:16:17.327Z,63.65
2018-08-31T10:19:19.603Z,62.36
2018-08-31T10:22:21.910Z,62.36
2018-08-31T10:25:24.128Z,62.71
2018-08-31T10:28:26.474Z,61.38
2018-08-31T10:31:28.854Z,61.10
2018-08-31T10:34:31.123Z,59.34
2018-08-31T10:37:33.420Z,60.84
2018-08-31T10:40:35.708Z,59.50
2018-08-31T10:43:37.984Z,57.74
2018-08-31T10:46:40.351Z,56.38
2018-08-31T10:49:42.437Z,54.38
2018-08-31T10:52:44.734Z,52.53
2018-08-31T10:55:47.217Z,51.19
2018-08-31T10:58:49.636Z,49.94
2018-08-31T11:01:51.933Z,50.98
2018-08-31T11:04:54.234Z,52.29
2018-08-31T11:11:04.343Z,50.18
2018-08-31T11:14:06.624Z,48.85
2018-08-31T11:17:08.835Z,49.92
2018-08-31T11:20:11.079Z,49.26
2018-08-31T11:23:13.340Z,48.58
2018-08-31T11:26:15.648Z,51.26
2018-08-31T11:29:17.989Z,53.69
2018-08-31T11:32:20.243Z,52.93
2018-08-31T11:35:22.489Z,53.41
2018-08-31T11:38:24.864Z,53.42
2018-08-31T11:41:27.067Z,51.57
2018-08-31T11:44:29.349Z,50.28
2018-08-31T11:48:56.133Z,50.16
2018-08-31T11:51:58.418Z,48.69
2018-08-31T11:55:00.798Z,48.96
2018-08-31T11:58:03.064Z,49.82
2018-08-31T12:01:06.433Z,47.63
2018-08-31T12:04:08.672Z,48.55
2018-08-31T12:07:10.974Z,47.84
2018-08-31T12:10:13.165Z,47.36
2018-08-31T12:13:15.364Z,45.59
2018-08-31T12:16:17.559Z,46.08
2018-08-31T12:19:19.811Z,48.21
2018-08-31T12:22:22.137Z,47.09
2018-08-31T12:25:24.365Z,47.18
2018-08-31T12:28:26.640Z,48.27
2018-08-31T12:31:28.932Z,48.45
2018-08-31T12:34:31.221Z,44.52
2018-08-31T12:37:33.569Z,44.11
2018-08-31T12:40:35.984Z,46.13
2018-08-31T12:43:38.372Z,46.17
2018-08-31T12:46:40.566Z,47.14
2018-08-31T12:49:42.846Z,47.88
2018-08-31T12:52:45.059Z,48.67
2018-08-31T12:55:47.340Z,48.52
2018-08-31T12:58:50.296Z,48.29
2018-08-31T13:01:52.662Z,48.86
2018-08-31T13:04:54.924Z,49.64
2018-08-31T13:07:57.153Z,48.84
2018-08-31T13:10:59.380Z,51.11
2018-08-31T13:14:01.645Z,52.08
2018-08-31T13:17:03.950Z,51.90
2018-08-31T13:20:06.276Z,53.07
2018-08-31T13:23:08.499Z,52.85
2018-08-31T13:26:10.851Z,53.48
2018-08-31T13:29:13.061Z,53.92
2018-08-31T13:32:15.298Z,55.07
2018-08-31T13:35:17.480Z,54.09
2018-08-31T13:38:19.982Z,54.79
2018-08-31T13:41:22.083Z,54.08
2018-08-31T13:44:24.383Z,54.01
2018-08-31T13:47:26.637Z,52.93
2018-08-31T13:50:28.830Z,52.29
2018-08-31T13:53:31.155Z,51.15
2018-08-31T13:56:33.976Z,50.93
2018-08-31T13:59:36.284Z,50.56
2018-08-31T14:02:38.535Z,50.09
2018-08-31T14:05:40.768Z,49.33
2018-08-31T14:08:43.028Z,49.62
2018-08-31T14:11:45.277Z,48.50
2018-08-31T14:14:47.557Z,49.12
2018-08-31T14:17:49.743Z,49.33
2018-08-31T14:20:52.009Z,48.99
2018-08-31T14:23:54.207Z,47.45
2018-08-31T14:26:56.714Z,46.73
2018-08-31T14:29:59.000Z,47.37
2018-08-31T14:33:01.292Z,48.75
2018-08-31T14:36:03.527Z,48.60
2018-08-31T14:39:07.950Z,47.00
2018-08-31T14:42:10.177Z,46.94
2018-08-31T14:45:12.456Z,45.75
2018-08-31T14:48:14.719Z,46.31
2018-08-31T14:51:17.905Z,46.50
2018-08-31T14:54:20.252Z,45.70
2018-08-31T14:57:22.524Z,45.64
2018-08-31T15:00:24.730Z,45.81
2018-08-31T15:03:26.995Z,47.17
2018-08-31T15:06:29.148Z,47.94
2018-08-31T15:09:31.447Z,46.77
2018-08-31T15:12:33.624Z,48.45
2018-08-31T15:15:35.975Z,47.88
2018-08-31T15:18:38.321Z,47.83
2018-08-31T15:21:40.595Z,48.32
2018-08-31T15:24:42.923Z,47.78
2018-08-31T15:27:45.245Z,47.82
2018-08-31T15:30:47.676Z,49.02
2018-08-31T15:33:49.999Z,49.73
2018-08-31T15:36:52.274Z,49.69
2018-08-31T15:39:54.464Z,51.29
2018-08-31T15:42:56.732Z,50.70
2018-08-31T15:45:59.103Z,50.26
2018-08-31T15:49:01.461Z,49.14
2018-08-31T15:52:03.763Z,49.75
2018-08-31T15:55:06.045Z,48.04
2018-08-31T15:58:08.242Z,50.19
2018-08-31T16:01:10.401Z,51.24
2018-08-31T16:04:12.581Z,51.79
2018-08-31T16:07:14.796Z,52.36
2018-08-31T16:10:16.962Z,52.75
2018-08-31T16:13:19.292Z,53.64
2018-08-31T16:16:21.680Z,54.21
2018-08-31T16:19:23.855Z,53.53
2018-08-31T16:22:26.112Z,54.06
2018-08-31T16:25:28.402Z,54.55
2018-08-31T16:28:30.611Z,55.15
2018-08-31T16:31:32.913Z,55.95
2018-08-31T16:34:35.154Z,56.04
2018-08-31T16:37:37.576Z,56.20
2018-08-31T16:40:39.777Z,55.30
2018-08-31T16:43:41.961Z,54.88
2018-08-31T16:46:44.157Z,55.37
2018-08-31T16:49:46.476Z,54.76
2018-08-31T16:52:48.647Z,54.93
2018-08-31T16:55:50.902Z,54.38
2018-08-31T16:58:53.135Z,54.08
2018-08-31T17:01:55.497Z,54.75
2018-08-31T17:04:58.136Z,54.61
2018-08-31T17:08:00.465Z,55.56
2018-08-31T17:11:02.752Z,56.19
2018-08-31T17:14:05.046Z,57.17
2018-08-31T17:17:07.319Z,58.07
2018-08-31T17:20:09.562Z,57.67
2018-08-31T17:23:11.827Z,58.11
2018-08-31T17:26:20.004Z,59.11
2018-08-31T17:29:28.058Z,60.23
2018-08-31T17:32:36.012Z,61.33
2018-08-31T17:35:43.947Z,61.30
2018-08-31T17:38:46.119Z,61.88
2018-08-31T17:41:48.399Z,63.04
2018-08-31T17:44:51.763Z,64.99
2018-08-31T17:47:54.004Z,65.81
2018-08-31T17:50:56.268Z,65.38
2018-08-31T17:53:58.544Z,67.17
2018-08-31T17:57:00.895Z,68.57
2018-08-31T18:00:03.258Z,70.15
2018-08-31T18:03:05.437Z,70.11
2018-08-31T18:06:07.605Z,71.00
2018-08-31T18:09:09.910Z,71.38
2018-08-31T18:12:12.108Z,72.92
2018-08-31T18:15:14.294Z,73.29
2018-08-31T18:18:16.580Z,73.65
2018-08-31T18:21:18.834Z,74.82
2018-08-31T18:24:21.265Z,76.41
2018-08-31T18:27:23.498Z,76.61
2018-08-31T18:30:25.740Z,77.34
2018-08-31T18:33:27.944Z,77.77
2018-08-31T18:36:30.193Z,78.01
2018-08-31T18:39:32.475Z,78.45
2018-08-31T18:42:34.780Z,79.23
2018-08-31T18:45:37.073Z,79.94
2018-08-31T18:48:39.391Z,79.70
2018-08-31T18:51:41.685Z,79.93
2018-08-31T18:54:43.906Z,80.54
2018-08-31T18:57:46.230Z,80.92
2018-08-31T19:00:48.539Z,81.65
2018-08-31T19:03:50.999Z,82.51
2018-08-31T19:06:53.278Z,83.91
2018-08-31T19:09:55.589Z,85.58
2018-08-31T19:12:57.886Z,86.29
2018-08-31T19:16:00.046Z,86.62
2018-08-31T19:19:02.320Z,86.76
2018-08-31T19:22:04.684Z,87.14
2018-08-31T19:25:07.040Z,87.50
2018-08-31T19:28:09.256Z,89.01
2018-08-31T19:31:11.578Z,90.55
2018-08-31T19:34:13.809Z,90.41
2018-08-31T19:37:16.029Z,91.67
2018-08-31T19:40:18.228Z,91.71
2018-08-31T19:43:20.379Z,91.84
2018-08-31T19:46:22.612Z,93.25
2018-08-31T19:49:24.997Z,93.84
2018-08-31T19:52:27.282Z,95.32
2018-08-31T19:55:29.624Z,95.97
2018-08-31T19:58:31.890Z,95.12
2018-08-31T20:01:34.214Z,95.28
2018-08-31T20:05:39.511Z,96.39
2018-08-31T20:08:41.709Z,95.03
2018-08-31T20:11:43.916Z,95.42
2018-08-31T20:14:46.276Z,96.98
2018-08-31T20:17:49.553Z,97.42
2018-08-31T20:20:51.817Z,97.34
2018-08-31T20:23:54.175Z,98.11
2018-08-31T20:26:56.605Z,98.47
2018-08-31T20:29:59.034Z,97.48
2018-08-31T20:33:01.368Z,98.47
2018-08-31T20:36:03.863Z,96.93
2018-08-31T20:39:08.411Z,97.20
2018-08-31T20:42:10.857Z,97.32
2018-08-31T20:45:13.317Z,97.10
2018-08-31T20:48:15.591Z,97.43
2018-08-31T20:51:17.939Z,97.46
2018-08-31T20:54:20.304Z,97.48
2018-08-31T20:57:22.592Z,98.38
2018-08-31T21:00:24.993Z,98.51
2018-08-31T21:03:27.316Z,99.02
2018-08-31T21:06:30.192Z,99.40
2018-08-31T21:09:32.359Z,98.70
2018-08-31T21:12:34.610Z,97.95
2018-08-31T21:15:36.913Z,99.22
2018-08-31T21:18:39.166Z,98.72
2018-08-31T21:21:41.516Z,99.55
2018-08-31T21:24:43.772Z,99.99
2018-08-31T21:27:46.059Z,100.00
2018-08-31T21:30:48.330Z,100.00
2018-08-31T21:33:51.401Z,100.00
2018-08-31T21:36:53.683Z,100.00
2018-08-31T21:39:55.927Z,100.00
2018-08-31T21:42:58.309Z,100.00
2018-08-31T21:46:00.608Z,100.00
2018-08-31T21:49:03.253Z,100.00
2018-08-31T21:52:05.758Z,100.00
2018-08-31T21:55:08.078Z,100.00
2018-08-31T21:58:10.275Z,100.00
2018-08-31T22:01:18.240Z,100.00
2018-08-31T22:04:20.956Z,100.00
2018-08-31T22:07:23.135Z,100.00
2018-08-31T22:10:25.392Z,100.00
2018-08-31T22:13:27.679Z,100.00
2018-08-31T22:16:29.881Z,100.00
2018-08-31T22:19:32.101Z,100.00
2018-08-31T22:22:34.492Z,100.00
2018-08-31T22:26:55.528Z,100.00
2018-08-31T22:29:57.730Z,100.00
2018-08-31T22:32:59.887Z,100.00
2018-08-31T22:36:02.183Z,100.00
2018-08-31T22:39:06.609Z,100.00
2018-08-31T22:42:08.807Z,100.00
2018-08-31T22:45:11.890Z,100.00
2018-08-31T22:48:14.036Z,100.00
2018-08-31T22:51:16.280Z,100.00
2018-08-31T22:54:18.512Z,100.00
2018-08-31T22:57:20.811Z,100.00
2018-08-31T23:00:23.162Z,100.00
2018-08-31T23:03:25.504Z,100.00
2018-08-31T23:06:27.761Z,100.00
2018-08-31T23:09:29.948Z,100.00
2018-08-31T23:12:32.243Z,100.00
2018-08-31T23:15:34.512Z,100.00
2018-08-31T23:18:36.746Z,100.00
2018-08-31T23:21:38.989Z,100.00
2018-08-31T23:24:41.266Z,100.00
2018-08-31T23:27:43.543Z,100.00
2018-08-31T23:30:45.959Z,100.00
2018-08-31T23:33:48.360Z,100.00
2018-08-31T23:36:50.569Z,100.00
2018-08-31T23:39:52.821Z,100.00
2018-08-31T23:42:55.166Z,100.00
2018-08-31T23:45:57.673Z,100.00
2018-08-31T23:48:59.835Z,100.00
2018-08-31T23:52:02.085Z,100.00
2018-08-31T23:55:04.392Z,100.00
2018-08-31T23:58:06.743Z,100.00
